Vega Gamleby — SKQG — position and weather

sailwx.info

Track history (hours):
 
Tides and Currents Weather Stations Pressure Air Temp Water Temp Dewpoint Dewpoint Depression Visibility Wind Speed Wind Dir Waves Ship Positions

Vega Gamleby

Last reported at 2019-Sep-07 10:18 UTC. Time now 2019-Oct-17 17:37 UTC.
Position N 57°50' E 016°31'.
Warning: this ship's position is 40 days out of date.

Length 31 m.

Type: Sailing vessel. MMSI: 266299000.

Date/timePositionNaut miles runAvg speedWind from/ knotsBaromVisibWave heightAir tempDewpointWater temp
2019-Sep-07 10:18N 57°50' E 016°31'1 3.5
2019-Sep-07 09:58N 57°49' E 016°33'8 0.4
2019-Sep-06 12:37N 57°44' E 016°44'1 5.8
2019-Sep-06 12:29N 57°45' E 016°45'6 4.8
2019-Sep-06 11:15N 57°50' E 016°50'2 3.2
2019-Sep-06 10:42N 57°48' E 016°49'3 3.4
2019-Sep-06 09:54N 57°46' E 016°47'1 3.4
2019-Sep-06 09:30N 57°45' E 016°45'1 2.6
2019-Sep-06 09:00N 57°44' E 016°44'  
2019-Aug-30 18:25N 57°45' E 016°44'0 0.3
2019-Aug-30 17:59N 57°45' E 016°44'0 0.0
2019-Aug-30 17:26N 57°45' E 016°44'0 0.0
2019-Aug-30 16:59N 57°45' E 016°44'0 0.0
2019-Aug-30 16:26N 57°45' E 016°44'0 0.0
2019-Aug-30 15:56N 57°45' E 016°44'0 0.0
2019-Aug-30 14:59N 57°45' E 016°44'0 0.0
2019-Aug-30 14:20N 57°45' E 016°44'0 0.0
2019-Aug-30 14:00N 57°45' E 016°44'0 0.0
2019-Aug-30 13:31N 57°45' E 016°44'0 0.1
2019-Aug-30 12:06N 57°45' E 016°44'  
Track history (hours):
 
Tides and Currents Weather Stations Pressure Air Temp Water Temp Dewpoint Dewpoint Depression Visibility Wind Speed Wind Dir Waves Ship Positions

Vega Gamleby

Last reported at 2019-Sep-07 10:18 UTC. Time now 2019-Oct-17 17:37 UTC.
Position N 57°50' E 016°31'.
Warning: this ship's position is 40 days out of date.

Length 31 m.

Type: Sailing vessel. MMSI: 266299000.

Date/timePositionNaut miles runAvg speedWind from/ knotsBaromVisibWave heightAir tempDewpointWater temp
2019-Sep-07 10:18N 57°50' E 016°31'1 3.5
2019-Sep-07 09:58N 57°49' E 016°33'8 0.4
2019-Sep-06 12:37N 57°44' E 016°44'1 5.8
2019-Sep-06 12:29N 57°45' E 016°45'6 4.8
2019-Sep-06 11:15N 57°50' E 016°50'2 3.2
2019-Sep-06 10:42N 57°48' E 016°49'3 3.4
2019-Sep-06 09:54N 57°46' E 016°47'1 3.4
2019-Sep-06 09:30N 57°45' E 016°45'1 2.6
2019-Sep-06 09:00N 57°44' E 016°44'  
2019-Aug-30 18:25N 57°45' E 016°44'0 0.3
2019-Aug-30 17:59N 57°45' E 016°44'0 0.0
2019-Aug-30 17:26N 57°45' E 016°44'0 0.0
2019-Aug-30 16:59N 57°45' E 016°44'0 0.0
2019-Aug-30 16:26N 57°45' E 016°44'0 0.0
2019-Aug-30 15:56N 57°45' E 016°44'0 0.0
2019-Aug-30 14:59N 57°45' E 016°44'0 0.0
2019-Aug-30 14:20N 57°45' E 016°44'0 0.0
2019-Aug-30 14:00N 57°45' E 016°44'0 0.0
2019-Aug-30 13:31N 57°45' E 016°44'0 0.1
2019-Aug-30 12:06N 57°45' E 016°44'  

Dump ship's entire track history